Time;durP1;ratioP1;P1;durP2;ratioP2;P2;SDS_P1;SDS_P2;PMS_P1;PMS_P2;Temp;Humidity;BMP_temperature;BMP_pressure;BME280_temperature;BME280_humidity;BME280_pressure;Samples;Min_cycle;Max_cycle;Signal;HPM_P1;HPM_P2
2021/11/17 02:26:02;;;;;;;63.10;25.25;;;6.10;99.90;;;;;;5048665;28;20087;-87
2021/11/17 02:28:47;;;;;;;60.72;25.42;;;6.10;99.90;;;;;;5027773;28;20139;-88
2021/11/17 02:31:39;;;;;;;68.97;29.45;;;6.10;99.90;;;;;;5060196;28;20334;-88
2021/11/17 02:34:23;;;;;;;75.82;31.00;;;6.10;99.90;;;;;;5031477;28;20038;-87
2021/11/17 02:37:13;;;;;;;72.40;29.55;;;6.10;99.90;;;;;;5039924;28;20032;-87
2021/11/17 02:40:01;;;;;;;61.50;26.38;;;6.10;99.90;;;;;;5034490;28;20200;-88
2021/11/17 02:42:27;;;;;;;68.57;26.92;;;6.10;99.90;;;;;;5042407;28;20120;-88
2021/11/17 02:45:29;;;;;;;66.20;27.98;;;6.10;99.90;;;;;;5039618;28;20029;-88
2021/11/17 02:48:19;;;;;;;54.38;23.92;;;6.20;99.90;;;;;;5045830;28;20036;-87
2021/11/17 02:50:58;;;;;;;52.20;22.80;;;6.20;99.90;;;;;;5038291;28;20136;-87
2021/11/17 02:53:47;;;;;;;53.90;23.20;;;6.20;99.90;;;;;;5034217;28;20117;-88
2021/11/17 02:56:33;;;;;;;51.58;22.75;;;6.20;99.90;;;;;;5029923;28;20040;-88
2021/11/17 02:59:27;;;;;;;59.08;24.17;;;6.20;99.90;;;;;;5048490;28;20025;-88
2021/11/17 03:02:02;;;;;;;52.92;21.30;;;6.20;99.90;;;;;;5032310;28;20025;-88
2021/11/17 03:04:52;;;;;;;55.95;23.60;;;6.20;99.90;;;;;;5025669;28;20025;-88
2021/11/17 03:07:17;;;;;;;63.20;26.80;;;6.20;99.90;;;;;;5042819;28;20125;-88
2021/11/17 03:10:12;;;;;;;52.97;22.73;;;6.20;99.90;;;;;;5032670;28;20112;-88
2021/11/17 03:13:02;;;;;;;57.00;23.50;;;6.20;99.90;;;;;;5040226;28;20025;-88
2021/11/17 03:15:37;;;;;;;62.05;25.17;;;6.20;99.90;;;;;;5048874;28;20028;-88
2021/11/17 03:18:15;;;;;;;60.78;25.58;;;6.20;99.90;;;;;;5035170;28;20021;-87
2021/11/17 03:20:59;;;;;;;66.80;26.13;;;6.20;99.90;;;;;;5016363;28;20034;-88
2021/11/17 03:23:41;;;;;;;61.47;25.45;;;6.20;99.90;;;;;;5032633;28;20121;-87
2021/11/17 03:26:18;;;;;;;56.00;24.23;;;6.20;99.90;;;;;;5033630;28;20037;-88
2021/11/17 03:29:02;;;;;;;60.55;25.55;;;6.20;99.90;;;;;;5049705;28;20029;-88
2021/11/17 03:31:56;;;;;;;57.05;24.60;;;6.20;99.90;;;;;;5047170;28;20029;-87
2021/11/17 03:34:37;;;;;;;;;;;6.20;99.90;;;;;;5016959;28;20049;-87
2021/11/17 03:37:19;;;;;;;44.78;20.33;;;6.20;99.90;;;;;;5033932;28;19921;-88
2021/11/17 03:39:57;;;;;;;47.40;20.52;;;6.20;99.90;;;;;;5058375;28;20087;-87
2021/11/17 03:42:50;;;;;;;55.42;24.38;;;6.20;99.90;;;;;;5048433;28;20092;-87
2021/11/17 03:45:22;;;;;;;61.28;26.92;;;6.20;99.90;;;;;;5028002;28;20041;-87
2021/11/17 03:48:03;;;;;;;56.05;25.60;;;6.20;99.90;;;;;;5038852;28;20027;-87
2021/11/17 03:50:54;;;;;;;60.05;26.95;;;6.20;99.90;;;;;;5053824;28;20071;-87
2021/11/17 03:53:29;;;;;;;56.05;23.88;;;6.20;99.90;;;;;;5034752;28;20029;-88
2021/11/17 03:56:14;;;;;;;62.47;27.85;;;6.20;99.90;;;;;;5040933;28;20082;-87
2021/11/17 03:58:55;;;;;;;60.33;28.17;;;6.20;99.90;;;;;;5052905;28;20053;-87
2021/11/17 04:01:43;;;;;;;59.97;26.65;;;6.20;99.90;;;;;;5035617;28;20163;-87
2021/11/17 04:04:17;;;;;;;57.95;25.20;;;6.20;99.90;;;;;;5036371;28;20021;-88
2021/11/17 04:06:58;;;;;;;56.70;24.77;;;6.20;99.90;;;;;;5052635;28;20037;-88
2021/11/17 04:09:40;;;;;;;52.22;24.60;;;6.20;99.90;;;;;;5052928;28;20021;-88
2021/11/17 04:12:21;;;;;;;58.72;26.73;;;6.30;99.90;;;;;;5053143;28;20102;-88
2021/11/17 04:15:08;;;;;;;51.35;24.15;;;6.30;99.90;;;;;;5052441;28;20026;-87
2021/11/17 04:17:46;;;;;;;57.90;24.25;;;6.30;99.90;;;;;;5069368;28;20075;-87
2021/11/17 04:20:22;;;;;;;50.30;22.35;;;6.30;99.90;;;;;;5052878;28;20057;-88
2021/11/17 04:23:06;;;;;;;50.28;23.55;;;6.40;99.90;;;;;;5035931;28;20029;-88
2021/11/17 04:25:47;;;;;;;47.22;22.45;;;6.30;99.90;;;;;;5053376;28;20035;-87
2021/11/17 04:28:31;;;;;;;53.88;24.85;;;6.30;99.90;;;;;;5052610;28;20120;-87
2021/11/17 04:31:10;;;;;;;51.53;24.52;;;6.30;99.90;;;;;;5037456;28;20078;-87
2021/11/17 04:33:58;;;;;;;55.28;25.13;;;6.30;99.90;;;;;;5052191;28;20400;-87
2021/11/17 04:36:41;;;;;;;47.55;23.45;;;6.30;99.90;;;;;;5052819;28;20028;-87
2021/11/17 04:39:30;;;;;;;48.13;21.92;;;6.40;99.90;;;;;;5052901;28;20124;-87
2021/11/17 04:42:11;;;;;;;52.83;23.27;;;6.40;99.90;;;;;;5052681;28;20139;-87
2021/11/17 04:44:52;;;;;;;58.85;25.08;;;6.40;99.90;;;;;;5052239;28;20072;-88
2021/11/17 04:47:43;;;;;;;61.28;26.80;;;6.40;99.90;;;;;;5052278;28;20017;-88
2021/11/17 04:50:24;;;;;;;63.20;28.55;;;6.30;99.90;;;;;;5052582;28;20074;-87
2021/11/17 04:53:14;;;;;;;60.63;26.77;;;6.30;99.90;;;;;;5052249;28;20051;-88
2021/11/17 04:56:04;;;;;;;51.42;22.35;;;6.30;99.90;;;;;;5053106;28;20037;-88
2021/11/17 04:59:01;;;;;;;67.45;27.15;;;6.30;99.90;;;;;;5055838;28;20032;-88
2021/11/17 05:01:40;;;;;;;62.78;27.48;;;6.30;99.90;;;;;;5055889;28;20090;-87
2021/11/17 05:04:27;;;;;;;58.97;26.80;;;6.30;99.90;;;;;;5056004;28;20023;-88
2021/11/17 05:07:11;;;;;;;59.90;24.27;;;6.30;99.90;;;;;;5055869;28;20067;-88
2021/11/17 05:09:42;;;;;;;51.42;22.42;;;6.30;99.90;;;;;;5055689;28;20029;-88
2021/11/17 05:12:17;;;;;;;67.78;29.23;;;6.30;99.90;;;;;;5055477;28;20495;-87
2021/11/17 05:14:58;;;;;;;65.97;28.05;;;6.30;99.90;;;;;;5055679;28;20036;-88
2021/11/17 05:18:12;;;;;;;58.38;25.65;;;6.30;99.90;;;;;;5055587;28;20029;-87
2021/11/17 05:21:15;;;;;;;61.42;25.92;;;6.20;99.90;;;;;;5053159;28;20132;-87
2021/11/17 05:24:18;;;;;;;54.03;23.40;;;6.20;99.90;;;;;;5055403;28;20115;-88
2021/11/17 05:26:47;;;;;;;60.40;24.33;;;6.10;99.90;;;;;;5055545;28;20384;-88
2021/11/17 05:29:31;;;;;;;57.20;24.40;;;6.10;99.90;;;;;;5055417;28;20029;-87
2021/11/17 05:32:16;;;;;;;59.55;24.98;;;6.10;99.90;;;;;;5039542;28;20028;-87
2021/11/17 05:34:47;;;;;;;71.65;28.33;;;6.10;99.90;;;;;;5031676;28;20054;-88
2021/11/17 05:37:32;;;;;;;59.80;24.52;;;6.10;99.90;;;;;;5039216;28;20033;-88
2021/11/17 05:40:12;;;;;;;55.78;23.48;;;6.10;99.90;;;;;;5038447;28;20025;-88
2021/11/17 05:43:03;;;;;;;48.92;20.50;;;6.10;99.90;;;;;;5018950;28;20105;-87
2021/11/17 05:46:02;;;;;;;45.20;18.63;;;6.10;99.90;;;;;;5020538;28;20120;-88
2021/11/17 05:48:31;;;;;;;50.78;21.48;;;6.20;99.90;;;;;;5038839;28;20024;-87
2021/11/17 05:51:03;;;;;;;54.67;21.30;;;6.20;99.90;;;;;;5044295;28;20056;-87
2021/11/17 05:54:00;;;;;;;46.13;19.48;;;6.30;99.90;;;;;;5047371;28;20045;-87
2021/11/17 05:56:35;;;;;;;48.65;21.58;;;6.30;99.90;;;;;;5021812;28;20048;-87
2021/11/17 05:59:07;;;;;;;48.08;20.15;;;6.30;99.90;;;;;;5043928;28;20123;-87
2021/11/17 06:01:42;;;;;;;49.20;20.77;;;6.30;99.90;;;;;;5047845;28;20029;-88
2021/11/17 06:04:10;;;;;;;58.67;23.63;;;6.40;99.90;;;;;;5042913;28;20026;-88
2021/11/17 06:06:39;;;;;;;54.47;23.17;;;6.40;99.90;;;;;;5054344;28;20029;-88
2021/11/17 06:09:09;;;;;;;57.22;21.30;;;6.40;99.90;;;;;;5054224;28;20093;-87
2021/11/17 06:11:45;;;;;;;51.03;21.30;;;6.40;99.90;;;;;;5052944;28;20110;-88
2021/11/17 06:14:21;;;;;;;54.53;22.40;;;6.40;99.90;;;;;;5052838;28;20025;-87
2021/11/17 06:16:52;;;;;;;53.60;22.40;;;6.40;99.90;;;;;;5052987;28;20031;-87
2021/11/17 06:19:25;;;;;;;49.50;21.00;;;6.50;99.90;;;;;;5054460;28;20079;-87
2021/11/17 06:21:52;;;;;;;55.00;22.40;;;6.50;99.90;;;;;;5033236;28;20030;-87
2021/11/17 06:24:21;;;;;;;48.75;20.45;;;6.50;99.90;;;;;;5052462;28;20095;-87
2021/11/17 06:26:48;;;;;;;50.53;21.33;;;6.50;99.90;;;;;;5054067;28;20420;-87
2021/11/17 06:29:35;;;;;;;46.15;20.20;;;6.60;99.90;;;;;;5070196;28;20082;-88
2021/11/17 06:32:03;;;;;;;58.15;23.08;;;6.60;99.90;;;;;;5031163;28;20114;-87
2021/11/17 06:34:29;;;;;;;52.88;21.67;;;6.60;99.90;;;;;;5034262;28;20516;-87
2021/11/17 06:36:56;;;;;;;47.50;20.65;;;6.60;99.90;;;;;;5033470;28;20022;-87
2021/11/17 06:39:23;;;;;;;61.08;23.70;;;6.60;99.90;;;;;;5046757;28;20029;-88
2021/11/17 06:41:50;;;;;;;48.72;21.25;;;6.60;99.90;;;;;;5035766;28;20512;-87
2021/11/17 06:44:16;;;;;;;59.08;22.95;;;6.60;99.90;;;;;;5033447;28;20030;-88
2021/11/17 06:46:42;;;;;;;54.90;22.48;;;6.60;99.90;;;;;;5034679;28;20033;-88
2021/11/17 06:49:10;;;;;;;59.83;24.40;;;6.60;99.90;;;;;;5033791;28;20032;-88
2021/11/17 06:51:38;;;;;;;58.05;23.55;;;6.70;99.90;;;;;;5043868;28;20595;-88
2021/11/17 06:54:05;;;;;;;50.65;20.35;;;6.60;99.90;;;;;;5033062;28;20022;-87
2021/11/17 06:56:35;;;;;;;55.65;22.83;;;6.70;99.90;;;;;;5034427;28;20029;-88
2021/11/17 06:59:03;;;;;;;54.55;22.58;;;6.70;99.90;;;;;;5034194;28;20091;-88
2021/11/17 07:01:29;;;;;;;53.10;22.17;;;6.70;99.90;;;;;;5044881;28;20025;-88
2021/11/17 07:03:55;;;;;;;53.58;23.08;;;6.70;99.90;;;;;;5034143;28;20029;-89
2021/11/17 07:06:21;;;;;;;50.55;21.17;;;6.70;99.90;;;;;;5033714;28;20024;-89
2021/11/17 07:08:47;;;;;;;50.08;21.33;;;6.70;99.90;;;;;;5032801;28;20030;-88
2021/11/17 07:11:14;;;;;;;54.60;23.60;;;6.70;99.90;;;;;;5044384;28;20108;-89
2021/11/17 07:13:40;;;;;;;52.97;23.30;;;6.70;99.90;;;;;;5033431;28;20556;-88
2021/11/17 07:16:08;;;;;;;53.70;23.38;;;6.70;99.90;;;;;;5034900;28;20061;-89
2021/11/17 07:18:35;;;;;;;51.92;22.67;;;6.70;99.90;;;;;;5033019;28;20091;-88
2021/11/17 07:21:02;;;;;;;50.97;23.25;;;6.70;99.90;;;;;;5041895;28;20021;-89
2021/11/17 07:23:28;;;;;;;58.97;24.15;;;6.70;99.90;;;;;;5035347;28;20056;-89
2021/11/17 07:25:56;;;;;;;55.42;24.00;;;6.70;99.90;;;;;;5049487;28;20493;-89
2021/11/17 07:28:23;;;;;;;52.90;22.70;;;6.80;99.90;;;;;;5065853;28;20033;-89
2021/11/17 07:30:49;;;;;;;57.53;25.73;;;6.80;99.90;;;;;;5041728;28;20032;-88
2021/11/17 07:33:15;;;;;;;58.92;24.17;;;6.80;99.90;;;;;;5036911;28;20025;-89
2021/11/17 07:35:47;;;;;;;58.90;25.05;;;6.80;99.90;;;;;;5047872;28;20074;-89
2021/11/17 07:38:18;;;;;;;64.90;26.48;;;6.80;99.90;;;;;;5052398;28;20025;-88
2021/11/17 07:40:45;;;;;;;59.45;26.33;;;6.80;99.90;;;;;;5052891;28;20140;-88
2021/11/17 07:43:14;;;;;;;60.08;25.00;;;6.80;99.90;;;;;;5037431;28;20033;-89
2021/11/17 07:45:42;;;;;;;62.33;26.17;;;6.90;99.90;;;;;;5034119;28;20032;-89
2021/11/17 07:48:09;;;;;;;59.67;25.35;;;6.90;99.90;;;;;;5049550;28;20044;-88
2021/11/17 07:50:36;;;;;;;58.08;24.75;;;6.90;99.90;;;;;;5037742;28;20024;-88
2021/11/17 07:53:02;;;;;;;57.67;23.92;;;6.90;99.90;;;;;;5039041;28;20118;-86
2021/11/17 07:55:29;;;;;;;63.35;25.95;;;7.00;99.90;;;;;;5033586;28;20096;-89
2021/11/17 07:57:57;;;;;;;65.60;26.63;;;7.00;99.90;;;;;;5048727;28;20039;-89
2021/11/17 08:00:32;;;;;;;60.47;25.23;;;7.00;99.90;;;;;;5036523;28;20029;-89
2021/11/17 08:03:01;;;;;;;64.63;25.73;;;7.00;99.90;;;;;;5039657;28;20139;-88
2021/11/17 08:05:28;;;;;;;60.72;24.67;;;7.00;99.90;;;;;;5032157;28;20037;-89
2021/11/17 08:07:54;;;;;;;61.90;25.85;;;7.10;99.90;;;;;;5050219;28;20469;-88
2021/11/17 08:10:28;;;;;;;62.22;25.40;;;7.10;99.90;;;;;;5052130;28;20423;-89
2021/11/17 08:12:56;;;;;;;71.05;30.08;;;7.10;99.90;;;;;;5042137;28;20153;-88
2021/11/17 08:15:22;;;;;;;60.92;26.17;;;7.10;99.90;;;;;;5032462;28;20057;-88
2021/11/17 08:17:48;;;;;;;62.97;26.88;;;7.20;99.90;;;;;;5049619;28;20025;-89
2021/11/17 08:20:18;;;;;;;71.40;30.08;;;7.20;99.90;;;;;;5033994;28;20365;-89
2021/11/17 08:22:49;;;;;;;65.38;28.00;;;7.20;99.90;;;;;;5032593;28;20367;-88
2021/11/17 08:25:18;;;;;;;59.95;26.10;;;7.30;99.90;;;;;;5032821;28;20032;-87
2021/11/17 08:27:46;;;;;;;67.97;27.95;;;7.30;99.90;;;;;;5033705;28;20033;-88
2021/11/17 08:30:15;;;;;;;80.50;32.40;;;7.40;99.90;;;;;;5053224;28;20017;-88
2021/11/17 08:32:45;;;;;;;69.70;30.35;;;7.40;99.90;;;;;;5047103;28;20034;-88
2021/11/17 08:35:23;;;;;;;64.70;27.67;;;7.40;99.90;;;;;;5036388;28;20045;-87
2021/11/17 08:37:50;;;;;;;64.68;26.40;;;7.40;99.90;;;;;;5036781;28;20033;-86
2021/11/17 08:40:27;;;;;;;70.55;27.83;;;7.40;99.90;;;;;;5036479;28;20036;-87
2021/11/17 08:42:53;;;;;;;77.35;29.58;;;7.50;99.90;;;;;;5036363;28;20033;-88
2021/11/17 08:45:21;;;;;;;83.50;32.67;;;7.40;99.90;;;;;;5041036;28;20030;-87
2021/11/17 08:47:48;;;;;;;74.65;30.42;;;7.50;99.90;;;;;;5036816;28;20037;-87
2021/11/17 08:50:19;;;;;;;70.63;28.67;;;7.50;99.90;;;;;;5036576;28;20064;-88
2021/11/17 08:52:45;;;;;;;67.55;28.90;;;7.50;99.90;;;;;;5035559;28;20033;-87
2021/11/17 08:55:12;;;;;;;76.72;31.45;;;7.50;99.90;;;;;;5035898;28;20484;-88
2021/11/17 08:57:39;;;;;;;85.78;32.08;;;7.50;99.90;;;;;;5035910;28;20084;-87
2021/11/17 09:00:10;;;;;;;76.28;30.10;;;7.60;99.90;;;;;;5038776;28;20057;-87
2021/11/17 09:02:41;;;;;;;82.82;34.75;;;7.70;99.90;;;;;;5053885;28;20022;-88
2021/11/17 09:05:13;;;;;;;90.75;33.42;;;7.70;99.90;;;;;;5046187;28;20358;-88
2021/11/17 09:07:43;;;;;;;78.65;32.47;;;7.70;99.90;;;;;;5039094;28;20028;-87
2021/11/17 09:10:12;;;;;;;77.80;30.75;;;7.70;99.90;;;;;;5037004;28;20432;-87
2021/11/17 09:12:38;;;;;;;79.82;31.67;;;7.70;99.90;;;;;;5052217;28;20037;-87
2021/11/17 09:15:06;;;;;;;78.97;33.05;;;7.70;99.90;;;;;;5055598;28;20024;-87
2021/11/17 09:17:32;;;;;;;80.45;31.50;;;7.70;99.90;;;;;;5057132;28;20555;-87
2021/11/17 09:19:58;;;;;;;73.25;28.05;;;7.70;99.90;;;;;;5056514;28;20056;-87
2021/11/17 09:22:28;;;;;;;75.70;29.92;;;7.70;99.90;;;;;;5036073;28;20017;-87
2021/11/17 09:24:54;;;;;;;76.93;31.05;;;7.70;99.90;;;;;;5035215;28;20074;-87
2021/11/17 09:27:19;;;;;;;69.95;27.25;;;7.70;99.90;;;;;;5035106;28;20465;-87
2021/11/17 09:29:47;;;;;;;79.22;31.08;;;7.70;99.90;;;;;;5050303;28;20066;-88
2021/11/17 09:32:13;;;;;;;84.85;34.45;;;7.70;99.90;;;;;;5052865;28;20041;-88
2021/11/17 09:34:41;;;;;;;77.32;30.83;;;7.70;99.90;;;;;;5034758;28;20061;-87
2021/11/17 09:37:09;;;;;;;80.25;32.75;;;7.70;99.90;;;;;;5035067;28;20037;-90
2021/11/17 09:39:37;;;;;;;74.47;31.27;;;7.80;99.90;;;;;;5033173;28;20030;-90
2021/11/17 09:42:08;;;;;;;86.60;34.35;;;7.70;99.90;;;;;;5036929;28;20037;-92
2021/11/17 09:44:40;;;;;;;80.32;31.30;;;7.70;99.90;;;;;;5040460;28;20481;-91
2021/11/17 09:47:11;;;;;;;73.70;28.92;;;7.70;99.90;;;;;;5055541;28;20032;-91
2021/11/17 09:50:01;;;;;;;73.65;29.08;;;7.80;99.90;;;;;;5056230;28;20025;-92
2021/11/17 09:52:35;;;;;;;73.70;30.52;;;7.80;99.90;;;;;;5050590;28;20034;-93
2021/11/17 09:55:28;;;;;;;79.68;31.95;;;7.80;99.90;;;;;;5046359;28;20024;-90
2021/11/17 09:58:08;;;;;;;74.25;31.42;;;7.80;99.90;;;;;;5039058;28;20037;-91
2021/11/17 10:00:43;;;;;;;73.60;31.92;;;7.80;99.90;;;;;;5040224;28;20048;-92
2021/11/17 10:03:33;;;;;;;74.80;32.10;;;7.90;99.90;;;;;;5046496;28;20045;-92
2021/11/17 10:15:00;;;;;;;92.32;37.67;;;8.00;99.90;;;;;;5044063;28;20076;-93
2021/11/17 10:17:33;;;;;;;97.00;39.05;;;8.10;99.90;;;;;;5056216;28;20106;-92
2021/11/17 10:20:38;;;;;;;99.95;38.63;;;8.10;99.90;;;;;;5053804;28;20396;-92
2021/11/17 10:23:19;;;;;;;97.80;39.15;;;8.10;99.90;;;;;;5035193;28;20044;-93
2021/11/17 10:25:48;;;;;;;88.32;36.78;;;8.10;99.90;;;;;;5050257;28;20031;-92
2021/11/17 10:28:25;;;;;;;99.03;40.35;;;8.20;99.90;;;;;;5055073;28;20025;-93
2021/11/17 10:31:31;;;;;;;103.68;40.63;;;8.20;99.90;;;;;;5054540;28;20054;-93
2021/11/17 10:34:25;;;;;;;107.25;41.35;;;8.20;99.90;;;;;;5038311;28;20065;-92
2021/11/17 10:37:23;;;;;;;116.70;44.10;;;8.30;99.90;;;;;;5035743;28;20048;-92
2021/11/17 10:39:53;;;;;;;114.07;44.22;;;8.30;99.90;;;;;;5036262;28;20083;-92
2021/11/17 10:42:21;;;;;;;106.85;41.85;;;8.30;99.90;;;;;;5051612;28;20030;-93
2021/11/17 10:44:56;;;;;;;98.57;39.30;;;8.40;99.90;;;;;;5034768;28;20069;-93
2021/11/17 10:47:35;;;;;;;91.95;36.30;;;8.40;99.90;;;;;;5051141;28;20040;-93
2021/11/17 10:50:03;;;;;;;98.55;39.05;;;8.40;99.90;;;;;;5035159;28;20057;-92
2021/11/17 10:52:38;;;;;;;116.75;43.20;;;8.50;99.90;;;;;;5035276;28;20853;-93
2021/11/17 10:55:31;;;;;;;108.60;40.92;;;8.50;99.90;;;;;;5042808;28;20028;-93
2021/11/17 10:57:58;;;;;;;104.63;40.95;;;8.50;99.90;;;;;;5055041;28;20035;-94
2021/11/17 11:00:35;;;;;;;112.07;45.85;;;8.60;99.90;;;;;;5052661;28;20453;-93
2021/11/17 11:03:02;;;;;;;112.47;42.13;;;8.60;99.90;;;;;;5035537;28;20021;-93
2021/11/17 11:05:43;;;;;;;107.65;41.25;;;8.70;99.90;;;;;;5053465;28;20052;-94
2021/11/17 11:08:21;;;;;;;95.65;38.13;;;8.70;99.90;;;;;;5037211;28;20469;-93
2021/11/17 11:10:53;;;;;;;100.53;39.17;;;8.80;99.90;;;;;;5033080;28;20025;-93
2021/11/17 11:13:26;;;;;;;102.10;40.47;;;8.80;99.90;;;;;;5032891;28;20037;-93
2021/11/17 11:15:57;;;;;;;109.22;42.75;;;8.90;99.90;;;;;;5032780;28;20030;-94
2021/11/17 11:18:36;;;;;;;113.15;43.50;;;8.90;99.90;;;;;;5043277;28;20051;-95
2021/11/17 11:21:03;;;;;;;111.18;42.85;;;9.00;99.90;;;;;;5033264;28;20389;-92
2021/11/17 11:23:50;;;;;;;110.88;43.45;;;9.00;99.90;;;;;;5033593;28;20038;-93
2021/11/17 11:26:19;;;;;;;92.50;37.30;;;9.10;99.90;;;;;;5035370;28;20076;-94
2021/11/17 11:28:45;;;;;;;96.53;39.10;;;9.20;99.90;;;;;;5037118;28;20022;-93
2021/11/17 11:31:11;;;;;;;95.45;37.92;;;9.20;99.90;;;;;;5033867;28;20070;-91
2021/11/17 11:33:48;;;;;;;89.80;38.67;;;9.30;99.90;;;;;;5030133;28;20037;-92
2021/11/17 11:36:33;;;;;;;100.90;40.67;;;9.40;99.90;;;;;;5032825;28;20075;-93
2021/11/17 11:39:08;;;;;;;98.50;40.83;;;9.40;99.90;;;;;;5055069;28;20641;-92
2021/11/17 11:42:06;;;;;;;91.60;37.50;;;9.50;99.90;;;;;;5042491;28;20113;-93
2021/11/17 11:44:40;;;;;;;90.60;36.42;;;9.50;99.90;;;;;;5051491;28;20026;-93
2021/11/17 11:47:12;;;;;;;89.57;39.10;;;9.50;99.90;;;;;;5041471;28;20017;-93
2021/11/17 11:49:47;;;;;;;91.22;38.78;;;9.60;99.90;;;;;;5039156;28;20124;-93
2021/11/17 11:52:33;;;;;;;89.40;37.72;;;9.60;99.90;;;;;;5037696;28;20029;-93
2021/11/17 11:55:00;;;;;;;87.97;40.70;;;9.80;99.90;;;;;;5033399;28;20041;-93
2021/11/17 11:57:40;;;;;;;87.15;37.72;;;10.00;99.90;;;;;;5042555;28;20025;-92
2021/11/17 12:00:30;;;;;;;83.25;38.92;;;10.10;99.90;;;;;;5035939;28;20030;-93
2021/11/17 12:03:17;;;;;;;96.88;39.45;;;10.10;99.90;;;;;;5017785;28;20524;-95
2021/11/17 12:06:12;;;;;;;91.07;40.80;;;10.10;99.90;;;;;;5048626;28;20025;-94
2021/11/17 12:09:13;;;;;;;83.93;39.08;;;10.10;99.90;;;;;;5034302;28;20026;-93
2021/11/17 12:11:59;;;;;;;93.57;42.55;;;10.10;99.90;;;;;;5036373;28;20034;-93
2021/11/17 12:14:49;;;;;;;97.80;42.00;;;10.10;99.90;;;;;;5055669;28;20042;-92
2021/11/17 12:17:26;;;;;;;84.60;37.67;;;10.10;99.90;;;;;;5037639;28;20355;-94
2021/11/17 12:19:58;;;;;;;89.65;38.53;;;10.20;99.90;;;;;;5036664;28;20021;-94
2021/11/17 12:22:38;;;;;;;91.38;39.17;;;10.30;99.90;;;;;;5053758;28;20040;-91
2021/11/17 12:25:29;;;;;;;79.15;37.05;;;10.50;99.90;;;;;;5045234;28;20036;-93
2021/11/17 12:28:17;;;;;;;80.07;37.05;;;10.60;99.90;;;;;;5057070;28;20353;-92
2021/11/17 12:30:58;;;;;;;77.45;35.50;;;10.50;99.90;;;;;;5042967;28;20403;-92
2021/11/17 12:33:36;;;;;;;68.50;34.65;;;10.60;99.90;;;;;;5045174;28;20065;-92
2021/11/17 12:36:36;;;;;;;77.03;36.40;;;10.80;99.90;;;;;;5037995;28;20057;-94
2021/11/17 12:39:16;;;;;;;83.45;37.50;;;10.90;99.90;;;;;;5026969;28;20531;-91
2021/11/17 12:41:43;;;;;;;76.85;35.97;;;11.00;99.90;;;;;;5057354;28;20536;-92
2021/11/17 12:44:26;;;;;;;73.38;34.55;;;11.00;99.90;;;;;;5039481;28;20018;-92
2021/11/17 12:47:07;;;;;;;77.85;35.10;;;11.00;99.90;;;;;;5037313;28;20068;-92
2021/11/17 12:49:47;;;;;;;72.80;35.58;;;10.90;99.90;;;;;;5048078;28;20094;-92
2021/11/17 12:52:34;;;;;;;69.07;33.53;;;10.90;99.90;;;;;;5058954;28;20029;-91
2021/11/17 12:55:29;;;;;;;64.95;31.88;;;10.90;99.90;;;;;;5036635;28;20040;-92
2021/11/17 12:58:12;;;;;;;65.53;29.80;;;10.90;99.90;;;;;;5037100;28;20044;-92
2021/11/17 13:00:53;;;;;;;59.53;29.13;;;10.80;99.90;;;;;;5040088;28;20020;-92
2021/11/17 13:03:33;;;;;;;60.00;30.05;;;10.80;99.90;;;;;;5045731;28;20029;-92
2021/11/17 13:06:22;;;;;;;60.30;29.38;;;10.70;99.90;;;;;;5037210;28;20030;-92
2021/11/17 13:09:30;;;;;;;59.80;30.80;;;10.70;99.90;;;;;;5041996;28;20039;-92
2021/11/17 13:12:06;;;;;;;60.42;30.48;;;10.70;99.90;;;;;;5047984;28;20040;-91
2021/11/17 13:14:52;;;;;;;55.67;26.80;;;10.70;99.90;;;;;;5036391;28;20366;-91
2021/11/17 13:17:23;;;;;;;62.85;30.70;;;10.80;99.90;;;;;;5045462;28;20461;-91
2021/11/17 13:19:56;;;;;;;59.88;31.15;;;10.90;99.90;;;;;;5042112;28;20017;-92
2021/11/17 13:22:35;;;;;;;56.23;27.57;;;10.90;99.90;;;;;;5037898;28;20086;-90
2021/11/17 13:25:23;;;;;;;49.72;26.70;;;10.80;99.90;;;;;;5044612;28;20086;-92
2021/11/17 13:28:04;;;;;;;52.65;27.40;;;10.90;99.90;;;;;;5042345;28;20109;-92
2021/11/17 13:30:50;;;;;;;48.55;26.67;;;10.90;99.90;;;;;;5038425;28;20022;-92
2021/11/17 13:33:33;;;;;;;48.70;25.38;;;11.00;99.90;;;;;;5036273;28;20036;-92
2021/11/17 13:36:14;;;;;;;46.97;25.08;;;11.00;99.90;;;;;;5037547;28;20049;-92
2021/11/17 13:39:02;;;;;;;40.10;22.23;;;11.10;99.90;;;;;;5021118;28;20026;-92
2021/11/17 13:41:32;;;;;;;39.05;21.88;;;11.10;99.90;;;;;;5047685;28;20044;-92
2021/11/17 13:44:01;;;;;;;41.78;21.52;;;11.10;99.90;;;;;;5046202;28;20021;-91
2021/11/17 13:46:32;;;;;;;36.40;19.75;;;11.00;99.90;;;;;;5035147;28;20042;-91
2021/11/17 13:48:58;;;;;;;34.08;18.83;;;11.10;99.90;;;;;;5035355;28;20724;-92
2021/11/17 13:51:27;;;;;;;35.20;18.98;;;11.00;99.90;;;;;;5035644;28;20120;-92
2021/11/17 13:53:57;;;;;;;32.20;16.90;;;11.00;99.90;;;;;;5036171;28;20035;-92
2021/11/17 13:56:29;;;;;;;31.05;16.00;;;11.00;99.90;;;;;;5035743;28;20128;-91
2021/11/17 13:58:56;;;;;;;27.10;14.00;;;11.00;99.90;;;;;;5035630;28;20530;-91
2021/11/17 14:01:23;;;;;;;31.33;14.10;;;11.00;99.90;;;;;;5021565;28;20041;-94
2021/11/17 14:03:51;;;;;;;22.95;11.88;;;11.00;99.90;;;;;;5034281;28;20485;-91
2021/11/17 14:06:19;;;;;;;25.30;10.90;;;11.00;99.90;;;;;;5032202;28;20030;-91
2021/11/17 14:08:46;;;;;;;20.50;9.15;;;11.00;99.90;;;;;;5031995;28;20036;-92
2021/11/17 14:11:15;;;;;;;18.60;9.23;;;11.10;99.90;;;;;;5035295;28;20032;-91
2021/11/17 14:13:45;;;;;;;19.63;8.77;;;11.10;99.90;;;;;;5036069;28;20128;-91
2021/11/17 14:16:17;;;;;;;19.05;8.45;;;11.10;99.90;;;;;;5031170;28;20037;-92
2021/11/17 14:18:43;;;;;;;16.90;8.40;;;11.10;99.90;;;;;;5030437;28;20022;-92
2021/11/17 14:21:10;;;;;;;19.25;7.72;;;11.20;99.90;;;;;;5031883;28;20027;-91
2021/11/17 14:23:40;;;;;;;20.70;7.80;;;11.20;99.90;;;;;;5032425;28;20025;-91
2021/11/17 14:26:12;;;;;;;18.27;7.95;;;11.20;99.90;;;;;;5029077;28;20033;-92
2021/11/17 14:28:49;;;;;;;22.30;8.15;;;11.10;99.90;;;;;;5034370;28;20040;-92
2021/11/17 14:31:37;;;;;;;18.60;7.07;;;11.00;99.90;;;;;;5031693;28;20061;-92
2021/11/17 14:34:07;;;;;;;16.20;6.00;;;11.00;99.90;;;;;;5049355;28;20099;-91
2021/11/17 14:36:37;;;;;;;20.42;5.45;;;10.80;99.90;;;;;;5031411;28;20434;-91
2021/11/17 14:39:13;;;;;;;13.63;4.80;;;10.70;99.90;;;;;;5016016;28;20034;-91
2021/11/17 14:41:42;;;;;;;16.20;4.97;;;10.60;99.90;;;;;;5039335;28;20128;-92
2021/11/17 14:44:09;;;;;;;12.25;4.45;;;10.50;99.90;;;;;;5052571;28;20025;-92
2021/11/17 14:46:36;;;;;;;15.32;4.85;;;10.40;99.90;;;;;;5034916;28;20033;-90
2021/11/17 14:49:03;;;;;;;14.63;4.43;;;10.40;99.90;;;;;;5044208;28;20036;-91
2021/11/17 14:51:32;;;;;;;17.30;4.25;;;10.30;99.90;;;;;;5052984;28;20029;-91
2021/11/17 14:54:07;;;;;;;14.57;4.30;;;10.30;99.90;;;;;;5052733;28;20033;-91
2021/11/17 14:56:34;;;;;;;10.38;3.08;;;10.30;99.90;;;;;;5035492;28;20065;-90
2021/11/17 14:59:00;;;;;;;13.13;3.28;;;10.30;99.90;;;;;;5044403;28;20041;-90
2021/11/17 15:01:32;;;;;;;10.40;2.55;;;10.30;99.90;;;;;;5051626;28;20168;-91
2021/11/17 15:04:02;;;;;;;11.43;2.78;;;10.20;99.90;;;;;;5050884;28;20090;-90
2021/11/17 15:06:32;;;;;;;15.88;3.50;;;10.20;99.90;;;;;;5055438;28;20178;-89
2021/11/17 15:09:02;;;;;;;15.75;3.20;;;10.10;99.90;;;;;;5028176;28;20029;-91
2021/11/17 15:11:49;;;;;;;14.48;3.08;;;10.10;99.90;;;;;;5047143;28;20025;-90
2021/11/17 15:14:16;;;;;;;9.68;2.88;;;10.00;99.90;;;;;;5050673;28;20029;-90
2021/11/17 15:16:47;;;;;;;8.80;2.53;;;9.90;99.90;;;;;;5019037;28;20037;-90
2021/11/17 15:19:14;;;;;;;13.13;3.22;;;9.80;99.90;;;;;;5042827;28;20025;-91
2021/11/17 15:21:52;;;;;;;13.18;2.63;;;9.70;99.90;;;;;;5053090;28;20028;-91
2021/11/17 15:24:22;;;;;;;11.10;3.45;;;9.60;99.90;;;;;;5019869;28;20029;-91
2021/11/17 15:26:57;;;;;;;11.25;2.95;;;9.60;99.90;;;;;;5041288;28;20099;-90
2021/11/17 15:29:24;;;;;;;15.47;3.30;;;9.50;99.90;;;;;;5042115;28;20025;-91
2021/11/17 15:31:55;;;;;;;13.75;3.03;;;9.50;99.90;;;;;;5031312;28;20110;-90
2021/11/17 15:34:24;;;;;;;16.30;3.17;;;9.40;99.90;;;;;;5031905;28;20072;-90
2021/11/17 15:36:50;;;;;;;8.88;2.45;;;9.40;99.90;;;;;;5036012;28;20032;-90
2021/11/17 15:39:16;;;;;;;13.23;2.50;;;9.30;99.90;;;;;;5045785;28;20033;-91
2021/11/17 15:41:46;;;;;;;13.13;3.03;;;9.20;99.90;;;;;;5030223;28;20061;-91
2021/11/17 15:44:14;;;;;;;13.05;3.50;;;9.10;99.90;;;;;;5013638;28;20461;-91
2021/11/17 15:47:04;;;;;;;9.57;2.92;;;9.00;99.90;;;;;;5053201;28;20044;-90
2021/11/17 15:49:35;;;;;;;12.20;3.15;;;9.00;99.90;;;;;;5038561;28;20024;-90
2021/11/17 15:52:05;;;;;;;14.35;3.70;;;8.90;99.90;;;;;;5048549;28;20033;-91
2021/11/17 15:54:37;;;;;;;11.63;2.92;;;8.80;99.90;;;;;;5046006;28;20040;-91